createdAt,value
2023-03-06T00:01:11.152Z,3.00
2023-03-06T00:03:39.310Z,3.00
2023-03-06T00:06:08.668Z,3.00
2023-03-06T00:08:37.020Z,3.00
2023-03-06T00:11:05.539Z,3.00
2023-03-06T00:13:35.113Z,3.00
2023-03-06T00:16:04.475Z,3.00
2023-03-06T00:18:32.691Z,3.00
2023-03-06T00:21:01.513Z,3.00
2023-03-06T00:23:29.762Z,2.90
2023-03-06T00:25:58.164Z,2.90
2023-03-06T00:28:26.423Z,2.90
2023-03-06T00:30:55.927Z,2.90
2023-03-06T00:33:24.069Z,2.90
2023-03-06T00:35:52.369Z,2.90
2023-03-06T00:38:20.610Z,2.80
2023-03-06T00:40:48.789Z,2.80
2023-03-06T00:43:17.203Z,2.80
2023-03-06T00:45:45.567Z,2.80
2023-03-06T00:48:15.182Z,2.80
2023-03-06T00:50:43.501Z,2.90
2023-03-06T00:53:13.278Z,2.70
2023-03-06T00:55:41.427Z,2.70
2023-03-06T00:58:09.606Z,2.70
2023-03-06T01:00:39.065Z,2.80
2023-03-06T01:03:07.394Z,2.80
2023-03-06T01:05:38.928Z,2.80
2023-03-06T01:08:08.901Z,2.80
2023-03-06T01:10:40.618Z,2.80
2023-03-06T01:13:08.920Z,2.80
2023-03-06T01:15:37.637Z,2.80
2023-03-06T01:18:07.389Z,2.80
2023-03-06T01:20:36.947Z,2.90
2023-03-06T01:23:05.171Z,2.90
2023-03-06T01:25:33.474Z,2.80
2023-03-06T01:28:01.690Z,2.80
2023-03-06T01:30:29.945Z,2.80
2023-03-06T01:32:59.276Z,2.80
2023-03-06T01:35:28.450Z,2.80
2023-03-06T01:37:57.980Z,2.80
2023-03-06T01:40:26.221Z,2.90
2023-03-06T01:42:55.096Z,2.80
2023-03-06T01:46:19.212Z,2.90
2023-03-06T01:48:50.037Z,2.90
2023-03-06T01:51:18.675Z,2.90
2023-03-06T01:53:51.521Z,2.80
2023-03-06T01:56:20.865Z,2.80
2023-03-06T01:58:49.746Z,2.80
2023-03-06T02:01:20.125Z,2.80
2023-03-06T02:03:50.333Z,2.80
2023-03-06T02:06:21.956Z,2.70
2023-03-06T02:08:53.899Z,2.70
2023-03-06T02:11:24.377Z,2.60
2023-03-06T02:13:55.717Z,2.60
2023-03-06T02:16:28.966Z,2.60
2023-03-06T02:18:59.462Z,2.50
2023-03-06T02:21:33.563Z,2.50
2023-03-06T02:24:22.082Z,2.50
2023-03-06T02:26:54.820Z,2.40
2023-03-06T02:29:28.944Z,2.40
2023-03-06T02:31:57.445Z,2.50
2023-03-06T02:34:57.046Z,2.50
2023-03-06T02:37:28.833Z,2.50
2023-03-06T02:40:30.405Z,2.40
2023-03-06T02:43:02.217Z,2.40
2023-03-06T02:46:56.494Z,2.40
2023-03-06T02:49:26.426Z,2.40
2023-03-06T02:51:54.729Z,2.40
2023-03-06T02:54:22.788Z,2.30
2023-03-06T02:56:50.926Z,2.30
2023-03-06T02:59:20.350Z,2.30
2023-03-06T03:01:48.726Z,2.30
2023-03-06T03:04:16.883Z,2.20
2023-03-06T03:06:45.010Z,2.30
2023-03-06T03:09:13.279Z,2.30
2023-03-06T03:11:41.486Z,2.30
2023-03-06T03:14:09.730Z,2.20
2023-03-06T03:16:39.385Z,2.30
2023-03-06T03:19:07.921Z,2.30
2023-03-06T03:21:36.237Z,2.30
2023-03-06T03:24:04.569Z,2.30
2023-03-06T03:26:32.628Z,2.30
2023-03-06T03:29:00.655Z,2.30
2023-03-06T03:31:28.886Z,2.20
2023-03-06T03:33:58.383Z,2.20
2023-03-06T03:36:27.550Z,2.20
2023-03-06T03:38:57.373Z,2.20
2023-03-06T03:41:25.731Z,2.10
2023-03-06T03:43:55.004Z,2.10
2023-03-06T03:46:23.511Z,2.20
2023-03-06T03:48:51.683Z,2.20
2023-03-06T03:51:21.512Z,2.20
2023-03-06T03:53:50.059Z,2.20
2023-03-06T03:56:19.014Z,2.20
2023-03-06T03:58:47.159Z,2.20
2023-03-06T04:01:15.438Z,2.20
2023-03-06T04:03:43.796Z,2.10
2023-03-06T04:06:12.389Z,2.10
2023-03-06T04:08:42.107Z,2.00
2023-03-06T04:11:13.066Z,2.00
2023-03-06T04:13:41.399Z,2.00
2023-03-06T04:16:09.844Z,2.00
2023-03-06T04:18:38.093Z,2.00
2023-03-06T04:21:06.866Z,1.90
2023-03-06T04:23:35.293Z,2.00
2023-03-06T04:26:05.147Z,1.90
2023-03-06T04:28:33.380Z,2.00
2023-03-06T04:31:01.605Z,2.00
2023-03-06T04:33:29.730Z,2.00
2023-03-06T04:35:58.054Z,2.10
2023-03-06T04:38:26.266Z,2.00
2023-03-06T04:40:54.362Z,2.00
2023-03-06T04:43:24.014Z,2.10
2023-03-06T04:45:52.299Z,2.10
2023-03-06T04:48:20.657Z,2.10
2023-03-06T04:50:48.932Z,2.10
2023-03-06T04:53:19.618Z,2.20
2023-03-06T04:55:48.021Z,2.30
2023-03-06T04:58:17.351Z,2.30
2023-03-06T05:00:47.099Z,2.30
2023-03-06T05:03:15.784Z,2.30
2023-03-06T05:05:44.341Z,2.30
2023-03-06T05:08:16.609Z,2.40
2023-03-06T05:10:45.788Z,2.40
2023-03-06T05:13:14.197Z,2.40
2023-03-06T05:15:43.179Z,2.40
2023-03-06T05:18:12.711Z,2.40
2023-03-06T05:20:40.859Z,2.40
2023-03-06T05:23:09.207Z,2.40
2023-03-06T05:25:41.824Z,2.40
2023-03-06T05:28:10.337Z,2.50
2023-03-06T05:30:39.669Z,2.40
2023-03-06T05:33:07.747Z,2.40
2023-03-06T05:35:37.381Z,2.30
2023-03-06T05:38:05.605Z,2.30
2023-03-06T05:40:33.789Z,2.30
2023-03-06T05:43:02.032Z,2.40
2023-03-06T05:45:30.322Z,2.40
2023-03-06T05:47:58.678Z,2.40
2023-03-06T05:50:26.964Z,2.40
2023-03-06T05:52:56.584Z,2.40
2023-03-06T05:55:24.973Z,2.40
2023-03-06T05:57:55.014Z,2.40
2023-03-06T06:00:24.779Z,2.40
2023-03-06T06:02:53.038Z,2.40
2023-03-06T06:05:21.340Z,2.40
2023-03-06T06:07:51.130Z,2.40
2023-03-06T06:10:21.012Z,2.40
2023-03-06T06:12:49.262Z,2.40
2023-03-06T06:15:17.693Z,2.30
2023-03-06T06:17:45.839Z,2.30
2023-03-06T06:20:17.391Z,2.30
2023-03-06T06:22:47.923Z,2.30
2023-03-06T06:25:16.497Z,2.30
2023-03-06T06:27:46.006Z,2.40
2023-03-06T06:30:14.998Z,2.30
2023-03-06T06:32:43.047Z,2.30
2023-03-06T06:35:11.409Z,2.20
2023-03-06T06:37:39.420Z,2.30
2023-03-06T06:40:09.529Z,2.20
2023-03-06T06:42:40.126Z,2.20
2023-03-06T06:45:12.520Z,2.20
2023-03-06T06:47:41.599Z,2.20
2023-03-06T06:50:13.888Z,2.30
2023-03-06T06:52:42.370Z,2.30
2023-03-06T06:55:12.073Z,2.30
2023-03-06T06:57:42.022Z,2.30
2023-03-06T07:00:16.791Z,2.30
2023-03-06T07:02:48.964Z,2.30
2023-03-06T07:05:17.338Z,2.30
2023-03-06T07:07:45.857Z,2.30
2023-03-06T07:10:17.040Z,2.30
2023-03-06T07:12:45.804Z,2.30
2023-03-06T07:15:18.401Z,2.40
2023-03-06T07:17:48.920Z,2.30
2023-03-06T07:20:19.122Z,2.40
2023-03-06T07:22:51.320Z,2.40
2023-03-06T07:25:20.669Z,2.30
2023-03-06T07:27:53.444Z,2.40
2023-03-06T07:30:24.728Z,2.40
2023-03-06T07:32:56.920Z,2.30
2023-03-06T07:35:26.541Z,2.30
2023-03-06T07:37:54.973Z,2.30
2023-03-06T07:40:24.148Z,2.30
2023-03-06T07:42:56.499Z,2.40
2023-03-06T07:45:29.296Z,2.40
2023-03-06T07:47:57.298Z,2.40
2023-03-06T07:50:26.437Z,2.40
2023-03-06T07:52:54.477Z,2.40
2023-03-06T07:55:22.606Z,2.40
2023-03-06T07:57:51.684Z,2.40
2023-03-06T08:00:20.859Z,2.40
2023-03-06T08:02:50.495Z,2.40
2023-03-06T08:05:19.005Z,2.40
2023-03-06T08:07:47.248Z,2.50
2023-03-06T08:10:18.154Z,2.50
2023-03-06T08:12:46.339Z,2.50
2023-03-06T08:15:15.554Z,2.60
2023-03-06T08:17:43.653Z,2.60
2023-03-06T08:20:14.674Z,2.60
2023-03-06T08:22:42.809Z,2.50
2023-03-06T08:25:13.318Z,2.50
2023-03-06T08:27:41.660Z,2.50
2023-03-06T08:30:11.594Z,2.60
2023-03-06T08:32:39.832Z,2.70
2023-03-06T08:35:09.234Z,2.90
2023-03-06T08:37:38.733Z,2.80
2023-03-06T08:40:08.554Z,2.80
2023-03-06T08:42:36.763Z,2.80
2023-03-06T08:45:08.003Z,2.90
2023-03-06T08:47:36.596Z,3.00
2023-03-06T08:50:05.313Z,3.00
2023-03-06T08:52:33.436Z,3.10
2023-03-06T08:55:03.642Z,3.20
2023-03-06T08:57:32.296Z,3.20
2023-03-06T09:00:00.495Z,3.20
2023-03-06T09:02:28.664Z,3.30
2023-03-06T09:04:56.790Z,3.30
2023-03-06T09:07:24.924Z,3.40
2023-03-06T09:09:57.788Z,3.40
2023-03-06T09:12:29.308Z,3.30
2023-03-06T09:14:58.890Z,3.20
2023-03-06T09:17:26.988Z,3.20
2023-03-06T09:19:55.169Z,3.30
2023-03-06T09:22:23.304Z,3.30
2023-03-06T09:24:52.039Z,3.50
2023-03-06T09:27:20.128Z,3.60
2023-03-06T09:29:49.590Z,3.70
2023-03-06T09:32:18.051Z,3.70
2023-03-06T09:34:46.122Z,3.80
2023-03-06T09:37:15.768Z,3.80
2023-03-06T09:39:44.636Z,4.10
2023-03-06T09:42:19.595Z,4.10
2023-03-06T09:44:55.674Z,4.10
2023-03-06T09:47:50.342Z,4.20
2023-03-06T09:50:33.370Z,4.30
2023-03-06T09:53:24.412Z,4.20
2023-03-06T09:56:02.919Z,4.30
2023-03-06T09:58:38.807Z,4.60
2023-03-06T10:01:20.730Z,4.80
2023-03-06T10:03:55.357Z,4.80
2023-03-06T10:06:29.911Z,5.00
2023-03-06T10:09:05.556Z,4.90
2023-03-06T10:11:40.506Z,5.20
2023-03-06T10:14:27.941Z,5.10
2023-03-06T10:16:58.641Z,5.00
2023-03-06T10:19:35.572Z,5.00
2023-03-06T10:22:15.797Z,5.00
2023-03-06T10:24:52.518Z,5.00
2023-03-06T10:27:37.188Z,5.00
2023-03-06T10:30:32.633Z,5.00
2023-03-06T10:33:16.827Z,5.00
2023-03-06T10:35:50.041Z,5.10
2023-03-06T10:38:23.278Z,5.00
2023-03-06T10:41:07.048Z,5.10
2023-03-06T10:43:36.806Z,5.40
2023-03-06T10:46:07.552Z,5.40
2023-03-06T10:48:41.920Z,5.50
2023-03-06T10:51:21.379Z,5.50
2023-03-06T10:53:57.243Z,5.60
2023-03-06T10:56:33.277Z,5.70
2023-03-06T10:59:15.194Z,5.80
2023-03-06T11:01:46.061Z,5.70
2023-03-06T11:04:29.325Z,5.50
2023-03-06T11:07:17.019Z,5.60
2023-03-06T11:09:47.861Z,5.50
2023-03-06T11:12:27.851Z,5.40
2023-03-06T11:15:17.481Z,5.40
2023-03-06T11:18:03.806Z,5.60
2023-03-06T11:20:51.499Z,5.50
2023-03-06T11:23:30.660Z,5.50
2023-03-06T11:26:05.993Z,5.40
2023-03-06T11:28:42.119Z,5.20
2023-03-06T11:31:17.836Z,5.20
2023-03-06T11:33:57.085Z,5.20
2023-03-06T11:37:34.450Z,5.10
2023-03-06T11:44:03.629Z,5.00
2023-03-06T12:06:55.065Z,4.30
2023-03-06T12:09:37.266Z,4.40
2023-03-06T12:12:29.089Z,4.30
2023-03-06T12:15:18.634Z,4.40
2023-03-06T12:18:18.136Z,4.40
2023-03-06T12:21:01.570Z,4.40
2023-03-06T12:24:03.606Z,4.40
2023-03-06T12:26:58.350Z,4.40
2023-03-06T12:29:54.565Z,4.40
2023-03-06T12:32:45.243Z,4.40
2023-03-06T12:35:37.516Z,4.40
2023-03-06T12:38:33.401Z,4.40
2023-03-06T12:41:20.730Z,4.40
2023-03-06T12:44:28.365Z,4.40
2023-03-06T12:47:02.995Z,4.50
2023-03-06T12:49:38.607Z,4.50
2023-03-06T12:52:09.877Z,4.50
2023-03-06T12:54:42.911Z,4.40
2023-03-06T12:57:16.101Z,4.40
2023-03-06T12:59:48.101Z,4.30
2023-03-06T13:03:00.944Z,4.40
2023-03-06T13:06:02.036Z,4.40
2023-03-06T13:09:01.309Z,4.60
2023-03-06T13:12:19.804Z,4.80
2023-03-06T13:15:00.341Z,5.10
2023-03-06T13:17:39.551Z,5.40
2023-03-06T13:20:36.748Z,5.70
2023-03-06T13:23:51.590Z,5.90
2023-03-06T13:26:57.049Z,6.20
2023-03-06T13:30:13.754Z,6.40
2023-03-06T13:32:43.574Z,6.20
2023-03-06T13:35:55.921Z,6.00
2023-03-06T13:38:59.795Z,5.70
2023-03-06T13:41:54.941Z,5.50
2023-03-06T13:44:44.838Z,5.50
2023-03-06T13:50:45.548Z,5.70
2023-03-06T13:53:56.857Z,5.80
2023-03-06T13:57:09.624Z,5.80
2023-03-06T14:00:22.920Z,6.10
2023-03-06T14:03:31.102Z,6.20
2023-03-06T14:05:59.454Z,6.10
2023-03-06T14:08:32.472Z,5.90
2023-03-06T14:11:04.991Z,5.80
2023-03-06T14:13:47.146Z,5.60
2023-03-06T14:16:22.506Z,5.60
2023-03-06T14:18:55.581Z,5.40
2023-03-06T14:21:32.251Z,5.50
2023-03-06T14:24:03.355Z,5.30
2023-03-06T14:26:35.336Z,5.30
2023-03-06T14:29:05.034Z,5.20
2023-03-06T14:31:38.728Z,5.10
2023-03-06T14:34:15.952Z,5.20
2023-03-06T14:36:46.287Z,5.20
2023-03-06T14:39:21.683Z,5.20
2023-03-06T14:41:50.403Z,5.20
2023-03-06T14:44:22.092Z,5.20
2023-03-06T14:46:52.985Z,5.20
2023-03-06T14:49:25.199Z,5.00
2023-03-06T14:51:56.892Z,4.90
2023-03-06T14:54:30.155Z,4.80
2023-03-06T14:57:06.312Z,4.80
2023-03-06T14:59:42.796Z,4.70
2023-03-06T15:02:18.564Z,4.60
2023-03-06T15:04:52.715Z,4.60
2023-03-06T15:07:28.125Z,4.60
2023-03-06T15:09:57.434Z,4.50
2023-03-06T15:12:39.427Z,4.50
2023-03-06T15:15:32.516Z,4.40
2023-03-06T15:18:01.157Z,4.40
2023-03-06T15:20:44.804Z,4.30
2023-03-06T15:23:23.705Z,4.40
2023-03-06T15:25:58.742Z,4.30
2023-03-06T15:28:35.204Z,4.20
2023-03-06T15:31:19.289Z,4.20
2023-03-06T15:34:23.375Z,4.20
2023-03-06T15:36:57.079Z,4.10
2023-03-06T15:39:43.473Z,4.10
2023-03-06T15:42:28.365Z,4.10
2023-03-06T15:45:03.141Z,4.00
2023-03-06T15:47:31.762Z,4.00
2023-03-06T15:50:00.173Z,3.90
2023-03-06T15:52:30.174Z,3.90
2023-03-06T15:54:58.536Z,3.80
2023-03-06T15:57:30.537Z,3.80
2023-03-06T16:00:02.559Z,3.70
2023-03-06T16:02:31.352Z,3.50
2023-03-06T16:05:02.635Z,3.40
2023-03-06T16:07:32.712Z,3.30
2023-03-06T16:10:01.077Z,3.20
2023-03-06T16:12:32.255Z,3.10
2023-03-06T16:15:04.536Z,2.90
2023-03-06T16:17:40.241Z,2.80
2023-03-06T16:20:15.422Z,2.70
2023-03-06T16:22:46.872Z,2.70
2023-03-06T16:25:17.202Z,2.80
2023-03-06T16:27:55.351Z,2.70
2023-03-06T16:30:25.813Z,2.80
2023-03-06T16:32:54.341Z,2.80
2023-03-06T16:35:22.939Z,2.80
2023-03-06T16:37:53.062Z,2.80
2023-03-06T16:40:25.373Z,2.80
2023-03-06T16:42:55.265Z,2.70
2023-03-06T16:45:25.979Z,2.70
2023-03-06T16:47:54.528Z,2.70
2023-03-06T16:50:30.463Z,2.70
2023-03-06T16:53:01.444Z,2.70
2023-03-06T16:55:32.674Z,2.70
2023-03-06T16:58:01.435Z,2.80
2023-03-06T17:00:32.234Z,2.80
2023-03-06T17:03:01.634Z,2.80
2023-03-06T17:05:33.143Z,2.80
2023-03-06T17:08:02.812Z,2.80
2023-03-06T17:10:31.042Z,2.80
2023-03-06T17:12:59.245Z,2.80
2023-03-06T17:15:27.481Z,2.80
2023-03-06T17:17:56.929Z,2.80
2023-03-06T17:20:25.131Z,2.80
2023-03-06T17:22:53.504Z,2.70
2023-03-06T17:25:23.205Z,2.80
2023-03-06T17:27:51.584Z,2.70
2023-03-06T17:30:19.811Z,2.70
2023-03-06T17:32:47.963Z,2.80
2023-03-06T17:35:16.196Z,2.80
2023-03-06T17:37:44.480Z,2.70
2023-03-06T17:40:15.520Z,2.80
2023-03-06T17:42:45.071Z,2.70
2023-03-06T17:45:13.944Z,2.80
2023-03-06T17:47:42.319Z,2.80
2023-03-06T17:50:16.096Z,2.80
2023-03-06T17:52:44.472Z,2.80
2023-03-06T17:55:13.015Z,2.70
2023-03-06T17:57:41.406Z,2.70
2023-03-06T18:00:12.991Z,2.70
2023-03-06T18:02:41.139Z,2.70
2023-03-06T18:05:10.633Z,2.70
2023-03-06T18:07:39.238Z,2.80
2023-03-06T18:10:08.374Z,2.80
2023-03-06T18:12:36.556Z,2.80
2023-03-06T18:15:05.443Z,2.80
2023-03-06T18:21:01.263Z,2.80
2023-03-06T18:23:31.290Z,2.80
2023-03-06T18:26:10.522Z,2.80
2023-03-06T18:28:39.941Z,2.80
2023-03-06T18:31:17.356Z,2.80
2023-03-06T18:33:46.375Z,2.70
2023-03-06T18:36:17.075Z,2.60
2023-03-06T18:38:45.892Z,2.40
2023-03-06T18:41:15.891Z,2.30
2023-03-06T18:43:45.384Z,2.30
2023-03-06T18:46:13.951Z,2.30
2023-03-06T18:48:42.526Z,2.20
2023-03-06T18:51:15.552Z,2.20
2023-03-06T18:53:46.374Z,2.10
2023-03-06T18:56:23.222Z,2.00
2023-03-06T18:58:54.486Z,2.00
2023-03-06T19:01:33.255Z,2.00
2023-03-06T19:04:06.078Z,2.10
2023-03-06T19:06:34.728Z,2.10
2023-03-06T19:09:11.662Z,2.20
2023-03-06T19:11:40.713Z,2.20
2023-03-06T19:14:09.482Z,2.30
2023-03-06T19:16:47.168Z,2.40
2023-03-06T19:27:07.648Z,2.40
2023-03-06T19:29:36.020Z,2.60
2023-03-06T19:32:05.088Z,2.60
2023-03-06T19:34:33.537Z,2.60
2023-03-06T19:37:01.975Z,2.60
2023-03-06T19:39:30.232Z,2.60
2023-03-06T19:45:11.855Z,2.70
2023-03-06T19:51:10.836Z,2.70
2023-03-06T19:53:55.083Z,2.70
2023-03-06T19:56:29.071Z,2.60
2023-03-06T19:58:58.020Z,2.60
2023-03-06T20:01:35.096Z,2.60
2023-03-06T20:08:18.423Z,2.60
2023-03-06T20:15:58.067Z,2.50
2023-03-06T20:18:27.987Z,2.50
2023-03-06T20:21:00.571Z,2.60
2023-03-06T20:23:29.369Z,2.60
2023-03-06T20:25:58.306Z,2.60
2023-03-06T20:28:26.542Z,2.60
2023-03-06T20:30:55.002Z,2.70
2023-03-06T20:33:23.394Z,2.70
2023-03-06T20:35:53.608Z,2.70
2023-03-06T20:38:22.055Z,2.70
2023-03-06T20:40:50.603Z,2.60
2023-03-06T20:43:18.846Z,2.60
2023-03-06T20:45:58.786Z,2.70
2023-03-06T20:48:27.015Z,2.70
2023-03-06T20:51:06.565Z,2.70
2023-03-06T20:53:35.381Z,2.70
2023-03-06T20:56:04.038Z,2.60
2023-03-06T20:58:32.652Z,2.70
2023-03-06T21:01:03.945Z,2.70
2023-03-06T21:03:32.339Z,2.70
2023-03-06T21:06:02.146Z,2.70
2023-03-06T21:08:30.333Z,2.70
2023-03-06T21:10:58.637Z,2.70
2023-03-06T21:13:26.836Z,2.80
2023-03-06T21:15:55.102Z,2.70
2023-03-06T21:18:23.594Z,2.80
2023-03-06T21:20:51.872Z,2.80
2023-03-06T21:23:23.723Z,2.80
2023-03-06T21:25:54.208Z,2.70
2023-03-06T21:28:23.163Z,2.70
2023-03-06T21:30:51.688Z,2.70
2023-03-06T21:33:20.313Z,2.80
2023-03-06T21:35:49.135Z,2.80
2023-03-06T21:38:20.280Z,2.80
2023-03-06T21:47:17.071Z,2.80
2023-03-06T21:49:48.925Z,2.80
2023-03-06T21:52:16.942Z,2.70
2023-03-06T21:54:44.982Z,2.70
2023-03-06T21:57:13.010Z,2.70
2023-03-06T21:59:41.261Z,2.70
2023-03-06T22:02:11.345Z,2.70
2023-03-06T22:04:39.816Z,2.60
2023-03-06T22:07:09.190Z,2.60
2023-03-06T22:09:37.313Z,2.60
2023-03-06T22:12:06.059Z,2.50
2023-03-06T22:14:34.092Z,2.50
2023-03-06T22:17:02.439Z,2.50
2023-03-06T22:19:30.496Z,2.40
2023-03-06T22:21:58.466Z,2.40
2023-03-06T22:24:27.893Z,2.40
2023-03-06T22:26:55.984Z,2.40
2023-03-06T22:29:24.688Z,2.50
2023-03-06T22:31:53.033Z,2.40
2023-03-06T22:34:21.158Z,2.40
2023-03-06T22:36:49.200Z,2.40
2023-03-06T22:39:17.221Z,2.40
2023-03-06T22:41:47.173Z,2.40
2023-03-06T22:44:18.745Z,2.40
2023-03-06T22:46:47.222Z,2.40
2023-03-06T22:49:16.830Z,2.50
2023-03-06T22:51:45.026Z,2.50
2023-03-06T22:54:13.092Z,2.50
2023-03-06T22:56:41.092Z,2.50
2023-03-06T22:59:10.441Z,2.50
2023-03-06T23:01:38.703Z,2.60
2023-03-06T23:04:10.924Z,2.60
2023-03-06T23:06:41.547Z,2.60
2023-03-06T23:09:15.881Z,2.60
2023-03-06T23:11:44.107Z,2.60
2023-03-06T23:14:14.970Z,2.60
2023-03-06T23:16:43.227Z,2.60
2023-03-06T23:19:11.392Z,2.60
2023-03-06T23:21:39.830Z,2.60
2023-03-06T23:24:08.705Z,2.50
2023-03-06T23:26:37.043Z,2.60
2023-03-06T23:29:05.460Z,2.50
2023-03-06T23:31:34.878Z,2.60
2023-03-06T23:34:04.272Z,2.50
2023-03-06T23:36:32.780Z,2.50
2023-03-06T23:39:00.962Z,2.50
2023-03-06T23:41:29.079Z,2.50
2023-03-06T23:43:57.080Z,2.50
2023-03-06T23:46:25.147Z,2.50
2023-03-06T23:48:54.732Z,2.60
2023-03-06T23:51:24.060Z,2.60
2023-03-06T23:53:57.403Z,2.60
2023-03-06T23:56:25.961Z,2.60
2023-03-06T23:58:54.809Z,2.60
